sensor_id;sensor_type;location;lat;lon;timestamp;pressure;altitude;pressure_sealevel;temperature;humidity
76746;BME280;65671;49.976;20.038;2023-02-01T00:01:56;97335.34;;;1.11;88.98
76746;BME280;65671;49.976;20.038;2023-02-01T00:04:22;97342.56;;;1.10;89.52
76746;BME280;65671;49.976;20.038;2023-02-01T00:06:48;97331.72;;;1.19;88.76
76746;BME280;65671;49.976;20.038;2023-02-01T00:09:13;97319.94;;;1.20;88.76
76746;BME280;65671;49.976;20.038;2023-02-01T00:11:39;97334.28;;;1.16;88.69
76746;BME280;65671;49.976;20.038;2023-02-01T00:14:04;97341.44;;;1.11;89.44
76746;BME280;65671;49.976;20.038;2023-02-01T00:16:30;97343.94;;;1.04;89.52
76746;BME280;65671;49.976;20.038;2023-02-01T00:19:00;97338.00;;;1.11;89.13
76746;BME280;65671;49.976;20.038;2023-02-01T00:21:27;97330.88;;;1.15;88.92
76746;BME280;65671;49.976;20.038;2023-02-01T00:23:52;97326.22;;;1.12;89.12
76746;BME280;65671;49.976;20.038;2023-02-01T00:26:21;97328.63;;;1.01;89.74
76746;BME280;65671;49.976;20.038;2023-02-01T00:28:48;97340.94;;;1.06;89.58
76746;BME280;65671;49.976;20.038;2023-02-01T00:31:13;97344.34;;;1.06;89.77
76746;BME280;65671;49.976;20.038;2023-02-01T00:33:40;97335.66;;;1.09;89.79
76746;BME280;65671;49.976;20.038;2023-02-01T00:36:07;97344.13;;;1.11;89.56
76746;BME280;65671;49.976;20.038;2023-02-01T00:38:35;97329.91;;;1.23;88.57
76746;BME280;65671;49.976;20.038;2023-02-01T00:43:37;97318.78;;;1.21;88.80
76746;BME280;65671;49.976;20.038;2023-02-01T00:46:03;97322.06;;;1.30;88.32
76746;BME280;65671;49.976;20.038;2023-02-01T00:48:29;97317.00;;;1.25;88.47
76746;BME280;65671;49.976;20.038;2023-02-01T00:50:58;97329.03;;;1.35;87.76
76746;BME280;65671;49.976;20.038;2023-02-01T00:53:24;97319.28;;;1.42;87.35
76746;BME280;65671;49.976;20.038;2023-02-01T00:55:49;97320.34;;;1.38;87.92
76746;BME280;65671;49.976;20.038;2023-02-01T00:58:15;97313.63;;;1.44;87.03
76746;BME280;65671;49.976;20.038;2023-02-01T01:00:40;97318.34;;;1.50;86.58
76746;BME280;65671;49.976;20.038;2023-02-01T01:03:09;97305.53;;;1.40;86.91
76746;BME280;65671;49.976;20.038;2023-02-01T01:05:45;97316.41;;;1.51;85.77
76746;BME280;65671;49.976;20.038;2023-02-01T01:08:11;97325.88;;;1.48;85.63
76746;BME280;65671;49.976;20.038;2023-02-01T01:10:37;97318.59;;;1.45;86.05
76746;BME280;65671;49.976;20.038;2023-02-01T01:13:03;97320.72;;;1.55;85.14
76746;BME280;65671;49.976;20.038;2023-02-01T01:15:28;97326.84;;;1.56;84.91
76746;BME280;65671;49.976;20.038;2023-02-01T01:17:54;97328.25;;;1.69;83.78
76746;BME280;65671;49.976;20.038;2023-02-01T01:20:19;97328.19;;;1.85;82.91
76746;BME280;65671;49.976;20.038;2023-02-01T01:22:47;97331.72;;;1.89;82.68
76746;BME280;65671;49.976;20.038;2023-02-01T01:25:13;97328.47;;;1.99;81.54
76746;BME280;65671;49.976;20.038;2023-02-01T01:27:39;97322.72;;;1.97;81.61
76746;BME280;65671;49.976;20.038;2023-02-01T01:30:05;97355.81;;;2.11;81.16
76746;BME280;65671;49.976;20.038;2023-02-01T01:32:31;97344.22;;;2.04;81.11
76746;BME280;65671;49.976;20.038;2023-02-01T01:34:56;97328.13;;;2.19;80.43
76746;BME280;65671;49.976;20.038;2023-02-01T01:37:22;97330.81;;;2.00;81.56
76746;BME280;65671;49.976;20.038;2023-02-01T01:39:48;97339.25;;;2.02;82.30
76746;BME280;65671;49.976;20.038;2023-02-01T01:42:13;97336.91;;;2.01;82.51
76746;BME280;65671;49.976;20.038;2023-02-01T01:44:58;97346.53;;;2.05;82.37
76746;BME280;65671;49.976;20.038;2023-02-01T01:47:34;97342.69;;;2.03;82.77
76746;BME280;65671;49.976;20.038;2023-02-01T01:50:03;97328.28;;;1.88;83.69
76746;BME280;65671;49.976;20.038;2023-02-01T01:52:29;97372.78;;;1.84;83.83
76746;BME280;65671;49.976;20.038;2023-02-01T01:54:55;97362.41;;;1.79;84.53
76746;BME280;65671;49.976;20.038;2023-02-01T01:59:56;97369.16;;;1.57;86.21
76746;BME280;65671;49.976;20.038;2023-02-01T02:02:24;97333.91;;;1.48;86.35
76746;BME280;65671;49.976;20.038;2023-02-01T02:04:50;97358.75;;;1.52;85.88
76746;BME280;65671;49.976;20.038;2023-02-01T02:07:21;97354.13;;;1.49;86.36
76746;BME280;65671;49.976;20.038;2023-02-01T02:09:48;97356.97;;;1.41;86.56
76746;BME280;65671;49.976;20.038;2023-02-01T02:12:13;97352.94;;;1.31;86.74
76746;BME280;65671;49.976;20.038;2023-02-01T02:14:39;97351.47;;;1.34;85.56
76746;BME280;65671;49.976;20.038;2023-02-01T02:22:42;97371.00;;;1.53;82.27
76746;BME280;65671;49.976;20.038;2023-02-01T02:34:09;97395.63;;;1.31;83.92
76746;BME280;65671;49.976;20.038;2023-02-01T02:39:06;97390.47;;;1.23;83.49
76746;BME280;65671;49.976;20.038;2023-02-01T02:41:48;97378.41;;;1.13;84.14
76746;BME280;65671;49.976;20.038;2023-02-01T02:44:44;97380.75;;;1.15;82.88
76746;BME280;65671;49.976;20.038;2023-02-01T02:47:37;97395.09;;;1.10;82.50
76746;BME280;65671;49.976;20.038;2023-02-01T02:52:44;97389.59;;;1.03;83.13
76746;BME280;65671;49.976;20.038;2023-02-01T02:55:30;97402.06;;;0.99;83.63
76746;BME280;65671;49.976;20.038;2023-02-01T02:57:59;97401.72;;;1.00;83.02
76746;BME280;65671;49.976;20.038;2023-02-01T03:00:44;97401.97;;;0.95;83.59
76746;BME280;65671;49.976;20.038;2023-02-01T03:03:28;97409.50;;;0.78;84.96
76746;BME280;65671;49.976;20.038;2023-02-01T03:06:15;97410.88;;;0.72;85.68
76746;BME280;65671;49.976;20.038;2023-02-01T03:08:41;97416.78;;;0.65;85.60
76746;BME280;65671;49.976;20.038;2023-02-01T03:11:13;97412.84;;;0.59;86.16
76746;BME280;65671;49.976;20.038;2023-02-01T03:13:45;97405.28;;;0.61;85.97
76746;BME280;65671;49.976;20.038;2023-02-01T03:16:21;97412.50;;;0.61;85.80
76746;BME280;65671;49.976;20.038;2023-02-01T03:19:08;97405.97;;;0.58;87.26
76746;BME280;65671;49.976;20.038;2023-02-01T03:21:48;97416.63;;;0.58;86.35
76746;BME280;65671;49.976;20.038;2023-02-01T03:24:18;97425.72;;;0.57;86.59
76746;BME280;65671;49.976;20.038;2023-02-01T03:26:55;97420.28;;;0.53;87.78
76746;BME280;65671;49.976;20.038;2023-02-01T03:29:45;97429.41;;;0.52;86.77
76746;BME280;65671;49.976;20.038;2023-02-01T03:32:13;97425.59;;;0.53;87.46
76746;BME280;65671;49.976;20.038;2023-02-01T03:34:39;97427.84;;;0.51;87.86
76746;BME280;65671;49.976;20.038;2023-02-01T03:37:09;97444.19;;;0.50;87.80
76746;BME280;65671;49.976;20.038;2023-02-01T03:39:58;97443.94;;;0.55;87.92
76746;BME280;65671;49.976;20.038;2023-02-01T03:47:36;97448.72;;;0.49;88.01
76746;BME280;65671;49.976;20.038;2023-02-01T03:50:09;97446.91;;;0.53;88.37
76746;BME280;65671;49.976;20.038;2023-02-01T03:52:42;97453.94;;;0.46;88.48
76746;BME280;65671;49.976;20.038;2023-02-01T03:55:10;97468.03;;;0.46;88.98
76746;BME280;65671;49.976;20.038;2023-02-01T03:57:44;97460.72;;;0.43;88.97
76746;BME280;65671;49.976;20.038;2023-02-01T04:00:19;97468.72;;;0.43;88.54
76746;BME280;65671;49.976;20.038;2023-02-01T04:02:45;97458.84;;;0.44;87.95
76746;BME280;65671;49.976;20.038;2023-02-01T04:05:10;97458.06;;;0.43;88.34
76746;BME280;65671;49.976;20.038;2023-02-01T04:07:37;97444.50;;;0.48;87.81
76746;BME280;65671;49.976;20.038;2023-02-01T04:10:03;97455.81;;;0.45;88.35
76746;BME280;65671;49.976;20.038;2023-02-01T04:12:29;97454.47;;;0.51;87.57
76746;BME280;65671;49.976;20.038;2023-02-01T04:14:55;97455.81;;;0.45;87.95
76746;BME280;65671;49.976;20.038;2023-02-01T04:17:20;97451.38;;;0.49;88.06
76746;BME280;65671;49.976;20.038;2023-02-01T04:19:46;97451.38;;;0.49;87.65
76746;BME280;65671;49.976;20.038;2023-02-01T04:22:11;97453.59;;;0.47;87.40
76746;BME280;65671;49.976;20.038;2023-02-01T04:24:38;97466.47;;;0.45;87.53
76746;BME280;65671;49.976;20.038;2023-02-01T04:27:03;97449.06;;;0.48;87.67
76746;BME280;65671;49.976;20.038;2023-02-01T04:29:29;97453.69;;;0.51;87.75
76746;BME280;65671;49.976;20.038;2023-02-01T04:31:54;97464.25;;;0.47;88.14
76746;BME280;65671;49.976;20.038;2023-02-01T04:34:20;97463.16;;;0.48;88.24
76746;BME280;65671;49.976;20.038;2023-02-01T04:36:48;97465.13;;;0.51;87.09
76746;BME280;65671;49.976;20.038;2023-02-01T04:39:13;97466.69;;;0.52;87.56
76746;BME280;65671;49.976;20.038;2023-02-01T04:41:39;97460.16;;;0.50;87.52
76746;BME280;65671;49.976;20.038;2023-02-01T04:44:05;97464.69;;;0.49;88.14
76746;BME280;65671;49.976;20.038;2023-02-01T04:46:30;97457.38;;;0.46;87.97
76746;BME280;65671;49.976;20.038;2023-02-01T04:48:56;97473.47;;;0.50;88.14
76746;BME280;65671;49.976;20.038;2023-02-01T04:51:22;97466.34;;;0.54;87.15
76746;BME280;65671;49.976;20.038;2023-02-01T04:53:47;97463.78;;;0.57;86.89
76746;BME280;65671;49.976;20.038;2023-02-01T04:56:13;97466.22;;;0.50;87.07
76746;BME280;65671;49.976;20.038;2023-02-01T04:58:39;97465.81;;;0.48;87.90
76746;BME280;65671;49.976;20.038;2023-02-01T05:01:06;97469.34;;;0.52;87.26
76746;BME280;65671;49.976;20.038;2023-02-01T05:03:33;97479.34;;;0.55;87.46
76746;BME280;65671;49.976;20.038;2023-02-01T05:05:59;97481.91;;;0.52;87.62
76746;BME280;65671;49.976;20.038;2023-02-01T05:08:25;97478.03;;;0.49;87.63
76746;BME280;65671;49.976;20.038;2023-02-01T05:10:52;97481.00;;;0.48;88.33
76746;BME280;65671;49.976;20.038;2023-02-01T05:13:18;97485.91;;;0.46;88.73
76746;BME280;65671;49.976;20.038;2023-02-01T05:16:03;97482.81;;;0.44;89.03
76746;BME280;65671;49.976;20.038;2023-02-01T05:18:28;97480.81;;;0.41;88.47
76746;BME280;65671;49.976;20.038;2023-02-01T05:20:54;97485.38;;;0.40;89.03
76746;BME280;65671;49.976;20.038;2023-02-01T05:23:20;97473.84;;;0.36;89.21
76746;BME280;65671;49.976;20.038;2023-02-01T05:25:45;97472.19;;;0.32;89.79
76746;BME280;65671;49.976;20.038;2023-02-01T05:28:11;97473.41;;;0.34;90.00
76746;BME280;65671;49.976;20.038;2023-02-01T05:30:37;97469.53;;;0.32;89.70
76746;BME280;65671;49.976;20.038;2023-02-01T05:33:03;97472.31;;;0.35;89.91
76746;BME280;65671;49.976;20.038;2023-02-01T05:35:29;97471.84;;;0.33;89.75
76746;BME280;65671;49.976;20.038;2023-02-01T05:37:54;97447.66;;;0.38;89.98
76746;BME280;65671;49.976;20.038;2023-02-01T05:40:20;97467.84;;;0.39;89.61
76746;BME280;65671;49.976;20.038;2023-02-01T05:42:46;97467.84;;;0.39;89.23
76746;BME280;65671;49.976;20.038;2023-02-01T05:45:11;97473.16;;;0.39;89.40
76746;BME280;65671;49.976;20.038;2023-02-01T05:47:37;97467.16;;;0.42;89.14
76746;BME280;65671;49.976;20.038;2023-02-01T05:50:04;97464.25;;;0.47;89.12
76746;BME280;65671;49.976;20.038;2023-02-01T05:52:30;97463.16;;;0.48;89.45
76746;BME280;65671;49.976;20.038;2023-02-01T05:54:56;97451.19;;;0.42;89.11
76746;BME280;65671;49.976;20.038;2023-02-01T05:57:22;97451.50;;;0.53;87.85
76746;BME280;65671;49.976;20.038;2023-02-01T05:59:47;97445.50;;;0.56;87.37
76746;BME280;65671;49.976;20.038;2023-02-01T06:02:14;97451.09;;;0.67;86.11
76746;BME280;65671;49.976;20.038;2023-02-01T06:04:40;97449.06;;;0.76;85.02
76746;BME280;65671;49.976;20.038;2023-02-01T06:07:07;97436.25;;;0.81;84.70
76746;BME280;65671;49.976;20.038;2023-02-01T06:09:33;97445.66;;;0.91;84.11
76746;BME280;65671;49.976;20.038;2023-02-01T06:11:59;97440.66;;;0.89;84.64
76746;BME280;65671;49.976;20.038;2023-02-01T06:14:26;97444.28;;;0.97;83.11
76746;BME280;65671;49.976;20.038;2023-02-01T06:16:53;97446.44;;;1.07;82.58
76746;BME280;65671;49.976;20.038;2023-02-01T06:19:19;97435.69;;;1.19;81.86
76746;BME280;65671;49.976;20.038;2023-02-01T06:21:45;97442.84;;;1.31;80.61
76746;BME280;65671;49.976;20.038;2023-02-01T06:24:10;97443.34;;;1.36;79.45
76746;BME280;65671;49.976;20.038;2023-02-01T06:26:36;97444.22;;;1.40;78.87
76746;BME280;65671;49.976;20.038;2023-02-01T06:29:03;97437.41;;;1.58;77.14
76746;BME280;65671;49.976;20.038;2023-02-01T06:31:28;97443.94;;;1.61;76.94
76746;BME280;65671;49.976;20.038;2023-02-01T06:33:54;97434.91;;;1.65;77.08
76746;BME280;65671;49.976;20.038;2023-02-01T06:36:19;97443.19;;;1.60;77.58
76746;BME280;65671;49.976;20.038;2023-02-01T06:38:47;97444.03;;;1.64;76.59
76746;BME280;65671;49.976;20.038;2023-02-01T06:41:13;97446.84;;;1.72;76.10
76746;BME280;65671;49.976;20.038;2023-02-01T06:43:38;97457.34;;;1.80;75.23
76746;BME280;65671;49.976;20.038;2023-02-01T06:46:06;97454.06;;;1.87;75.67
76746;BME280;65671;49.976;20.038;2023-02-01T06:48:34;97455.13;;;1.82;75.10
76746;BME280;65671;49.976;20.038;2023-02-01T06:50:59;97459.16;;;1.92;74.11
76746;BME280;65671;49.976;20.038;2023-02-01T06:53:26;97455.72;;;1.91;74.18
76746;BME280;65671;49.976;20.038;2023-02-01T06:56:02;97441.16;;;1.89;74.45
76746;BME280;65671;49.976;20.038;2023-02-01T06:58:32;97450.41;;;2.10;71.72
76746;BME280;65671;49.976;20.038;2023-02-01T07:01:03;97454.75;;;1.99;73.15
76746;BME280;65671;49.976;20.038;2023-02-01T07:03:29;97444.25;;;1.91;74.38
76746;BME280;65671;49.976;20.038;2023-02-01T07:05:55;97448.63;;;1.99;72.92
76746;BME280;65671;49.976;20.038;2023-02-01T07:08:21;97447.44;;;1.96;73.35
76746;BME280;65671;49.976;20.038;2023-02-01T07:10:46;97451.47;;;2.06;71.89
76746;BME280;65671;49.976;20.038;2023-02-01T07:13:12;97451.38;;;2.02;72.79
76746;BME280;65671;49.976;20.038;2023-02-01T07:15:37;97441.59;;;2.10;72.04
76746;BME280;65671;49.976;20.038;2023-02-01T07:18:03;97451.19;;;2.11;71.76
76746;BME280;65671;49.976;20.038;2023-02-01T07:20:29;97445.25;;;2.02;72.64
76746;BME280;65671;49.976;20.038;2023-02-01T07:22:56;97440.00;;;2.05;72.51
76746;BME280;65671;49.976;20.038;2023-02-01T07:25:22;97430.34;;;2.01;73.64
76746;BME280;65671;49.976;20.038;2023-02-01T07:27:48;97445.66;;;2.04;73.35
76746;BME280;65671;49.976;20.038;2023-02-01T07:30:13;97438.88;;;2.06;72.82
76746;BME280;65671;49.976;20.038;2023-02-01T07:32:39;97433.09;;;2.04;72.76
76746;BME280;65671;49.976;20.038;2023-02-01T07:35:04;97424.84;;;2.09;72.22
76746;BME280;65671;49.976;20.038;2023-02-01T07:37:30;97430.50;;;2.08;73.46
76746;BME280;65671;49.976;20.038;2023-02-01T07:39:56;97434.94;;;2.19;71.91
76746;BME280;65671;49.976;20.038;2023-02-01T07:42:21;97428.69;;;2.12;71.76
76746;BME280;65671;49.976;20.038;2023-02-01T07:44:47;97432.28;;;2.19;72.14
76746;BME280;65671;49.976;20.038;2023-02-01T07:47:12;97426.25;;;2.22;71.05
76746;BME280;65671;49.976;20.038;2023-02-01T07:49:38;97428.22;;;2.25;71.45
76746;BME280;65671;49.976;20.038;2023-02-01T07:52:03;97417.53;;;2.25;71.49
76746;BME280;65671;49.976;20.038;2023-02-01T07:54:29;97420.13;;;2.22;72.56
76746;BME280;65671;49.976;20.038;2023-02-01T07:56:54;97422.94;;;2.29;71.25
76746;BME280;65671;49.976;20.038;2023-02-01T07:59:20;97419.78;;;2.23;71.64
76746;BME280;65671;49.976;20.038;2023-02-01T08:01:45;97423.81;;;2.33;71.51
76746;BME280;65671;49.976;20.038;2023-02-01T08:04:11;97423.84;;;2.37;70.06
76746;BME280;65671;49.976;20.038;2023-02-01T08:06:38;97419.28;;;2.37;70.08
76746;BME280;65671;49.976;20.038;2023-02-01T08:09:05;97422.38;;;2.39;71.11
76746;BME280;65671;49.976;20.038;2023-02-01T08:11:32;97429.44;;;2.47;70.69
76746;BME280;65671;49.976;20.038;2023-02-01T08:13:58;97434.88;;;2.54;69.50
76746;BME280;65671;49.976;20.038;2023-02-01T08:16:25;97429.41;;;2.66;68.14
76746;BME280;65671;49.976;20.038;2023-02-01T08:18:51;97425.91;;;2.62;68.29
76746;BME280;65671;49.976;20.038;2023-02-01T08:21:20;97415.78;;;2.71;67.83
76746;BME280;65671;49.976;20.038;2023-02-01T08:23:47;97425.94;;;2.66;68.03
76746;BME280;65671;49.976;20.038;2023-02-01T08:26:20;97421.13;;;2.71;68.61
76746;BME280;65671;49.976;20.038;2023-02-01T08:28:52;97433.63;;;2.67;67.88
76746;BME280;65671;49.976;20.038;2023-02-01T08:31:20;97427.00;;;2.80;67.49
76746;BME280;65671;49.976;20.038;2023-02-01T08:33:52;97426.09;;;2.73;67.31
76746;BME280;65671;49.976;20.038;2023-02-01T08:36:19;97423.78;;;2.71;67.31
76746;BME280;65671;49.976;20.038;2023-02-01T08:38:45;97424.75;;;2.83;66.28
76746;BME280;65671;49.976;20.038;2023-02-01T08:41:14;97419.72;;;2.77;67.65
76746;BME280;65671;49.976;20.038;2023-02-01T08:43:41;97415.97;;;2.82;66.17
76746;BME280;65671;49.976;20.038;2023-02-01T08:46:07;97416.03;;;2.86;66.31
76746;BME280;65671;49.976;20.038;2023-02-01T08:48:33;97417.94;;;2.66;68.55
76746;BME280;65671;49.976;20.038;2023-02-01T08:51:10;97423.84;;;2.75;68.17
76746;BME280;65671;49.976;20.038;2023-02-01T08:53:37;97425.16;;;2.85;67.61
76746;BME280;65671;49.976;20.038;2023-02-01T08:56:05;97442.53;;;2.94;66.00
76746;BME280;65671;49.976;20.038;2023-02-01T08:58:32;97430.75;;;2.99;66.76
76746;BME280;65671;49.976;20.038;2023-02-01T09:01:01;97427.38;;;3.02;66.17
76746;BME280;65671;49.976;20.038;2023-02-01T09:03:27;97430.34;;;2.97;66.72
76746;BME280;65671;49.976;20.038;2023-02-01T09:05:52;97428.56;;;3.04;66.73
76746;BME280;65671;49.976;20.038;2023-02-01T09:08:24;97428.34;;;3.13;66.04
76746;BME280;65671;49.976;20.038;2023-02-01T09:10:50;97429.53;;;3.15;64.82
76746;BME280;65671;49.976;20.038;2023-02-01T09:13:15;97415.69;;;3.10;65.99
76746;BME280;65671;49.976;20.038;2023-02-01T09:15:41;97410.34;;;3.10;65.77
76746;BME280;65671;49.976;20.038;2023-02-01T09:18:06;97419.78;;;3.04;66.29
76746;BME280;65671;49.976;20.038;2023-02-01T09:20:31;97404.88;;;3.03;66.98
76746;BME280;65671;49.976;20.038;2023-02-01T09:22:57;97414.84;;;3.06;67.33
76746;BME280;65671;49.976;20.038;2023-02-01T09:25:22;97406.94;;;3.35;65.26
76746;BME280;65671;49.976;20.038;2023-02-01T09:27:48;97407.72;;;3.36;65.81
76746;BME280;65671;49.976;20.038;2023-02-01T09:30:14;97400.94;;;3.42;64.90
76746;BME280;65671;49.976;20.038;2023-02-01T09:32:39;97400.56;;;3.44;65.24
76746;BME280;65671;49.976;20.038;2023-02-01T09:35:05;97398.97;;;3.39;64.83
76746;BME280;65671;49.976;20.038;2023-02-01T09:37:30;97381.44;;;3.42;65.03
76746;BME280;65671;49.976;20.038;2023-02-01T09:39:56;97392.41;;;3.59;64.56
76746;BME280;65671;49.976;20.038;2023-02-01T09:42:45;97388.69;;;3.41;66.29
76746;BME280;65671;49.976;20.038;2023-02-01T09:48:13;97380.16;;;3.58;65.91
76746;BME280;65671;49.976;20.038;2023-02-01T09:50:45;97384.63;;;3.51;64.38
76746;BME280;65671;49.976;20.038;2023-02-01T09:53:25;97395.09;;;3.59;64.28
76746;BME280;65671;49.976;20.038;2023-02-01T09:56:05;97388.50;;;3.53;64.13
76746;BME280;65671;49.976;20.038;2023-02-01T10:00:58;97402.13;;;3.45;65.67
76746;BME280;65671;49.976;20.038;2023-02-01T10:03:28;97398.91;;;3.35;65.72
76746;BME280;65671;49.976;20.038;2023-02-01T10:06:13;97387.44;;;3.35;66.37
76746;BME280;65671;49.976;20.038;2023-02-01T10:17:07;97396.84;;;3.03;69.91
76746;BME280;65671;49.976;20.038;2023-02-01T10:20:04;97411.34;;;3.02;70.51
76746;BME280;65671;49.976;20.038;2023-02-01T10:22:43;97394.00;;;3.15;70.14
76746;BME280;65671;49.976;20.038;2023-02-01T10:25:18;97397.56;;;3.00;71.85
76746;BME280;65671;49.976;20.038;2023-02-01T10:27:49;97397.38;;;2.89;72.97
76746;BME280;65671;49.976;20.038;2023-02-01T10:30:25;97398.72;;;2.79;73.46
76746;BME280;65671;49.976;20.038;2023-02-01T10:33:17;97395.03;;;2.88;73.90
76746;BME280;65671;49.976;20.038;2023-02-01T10:35:45;97383.50;;;2.83;73.73
76746;BME280;65671;49.976;20.038;2023-02-01T10:38:26;97371.22;;;2.79;73.58
76746;BME280;65671;49.976;20.038;2023-02-01T10:41:07;97381.78;;;2.72;74.53
76746;BME280;65671;49.976;20.038;2023-02-01T10:43:36;97368.47;;;2.75;75.00
76746;BME280;65671;49.976;20.038;2023-02-01T10:46:05;97375.59;;;2.68;75.92
76746;BME280;65671;49.976;20.038;2023-02-01T10:48:32;97376.44;;;2.72;75.45
76746;BME280;65671;49.976;20.038;2023-02-01T10:50:59;97371.38;;;2.67;75.68
76746;BME280;65671;49.976;20.038;2023-02-01T10:55:55;97367.75;;;2.56;76.80
76746;BME280;65671;49.976;20.038;2023-02-01T10:58:32;97363.28;;;2.63;77.38
76746;BME280;65671;49.976;20.038;2023-02-01T11:01:06;97355.81;;;2.50;77.58
76746;BME280;65671;49.976;20.038;2023-02-01T11:03:44;97373.50;;;2.58;77.47
76746;BME280;65671;49.976;20.038;2023-02-01T11:06:18;97366.34;;;2.62;77.81
76746;BME280;65671;49.976;20.038;2023-02-01T11:08:51;97367.09;;;2.62;77.12
76746;BME280;65671;49.976;20.038;2023-02-01T11:11:19;97359.19;;;2.69;77.01
76746;BME280;65671;49.976;20.038;2023-02-01T11:13:52;97348.88;;;2.68;76.65
76746;BME280;65671;49.976;20.038;2023-02-01T11:16:18;97347.41;;;2.70;77.04
76746;BME280;65671;49.976;20.038;2023-02-01T11:18:44;97337.56;;;2.74;77.03
76746;BME280;65671;49.976;20.038;2023-02-01T11:21:09;97339.72;;;2.69;77.15
76746;BME280;65671;49.976;20.038;2023-02-01T11:23:41;97339.94;;;2.60;77.71
76746;BME280;65671;49.976;20.038;2023-02-01T11:26:14;97337.34;;;2.64;77.47
76746;BME280;65671;49.976;20.038;2023-02-01T11:29:01;97339.59;;;2.62;77.17
76746;BME280;65671;49.976;20.038;2023-02-01T11:31:28;97354.28;;;2.71;76.76
76746;BME280;65671;49.976;20.038;2023-02-01T11:34:12;97342.13;;;2.74;76.39
76746;BME280;65671;49.976;20.038;2023-02-01T11:36:40;97338.28;;;2.75;76.34
76746;BME280;65671;49.976;20.038;2023-02-01T11:42:04;97329.03;;;2.69;76.87
76746;BME280;65671;49.976;20.038;2023-02-01T11:47:29;97341.75;;;2.75;76.07
76746;BME280;65671;49.976;20.038;2023-02-01T11:50:00;97332.31;;;2.81;76.13
76746;BME280;65671;49.976;20.038;2023-02-01T12:00:59;97320.28;;;2.49;78.13
76746;BME280;65671;49.976;20.038;2023-02-01T12:17:42;97294.97;;;2.62;77.62
76746;BME280;65671;49.976;20.038;2023-02-01T12:22:51;97296.88;;;3.11;76.21
76746;BME280;65671;49.976;20.038;2023-02-01T12:25:52;97291.94;;;3.13;75.34
76746;BME280;65671;49.976;20.038;2023-02-01T12:43:17;97279.75;;;2.89;75.14
76746;BME280;65671;49.976;20.038;2023-02-01T12:45:53;97290.06;;;2.91;74.84
76746;BME280;65671;49.976;20.038;2023-02-01T12:48:28;97288.34;;;2.79;75.32
76746;BME280;65671;49.976;20.038;2023-02-01T12:51:00;97290.50;;;2.70;75.71
76746;BME280;65671;49.976;20.038;2023-02-01T12:56:19;97284.34;;;2.24;79.52
76746;BME280;65671;49.976;20.038;2023-02-01T12:58:54;97284.13;;;2.33;79.71
76746;BME280;65671;49.976;20.038;2023-02-01T13:06:55;97267.69;;;2.53;79.46
76746;BME280;65671;49.976;20.038;2023-02-01T13:12:26;97264.84;;;2.65;77.04
76746;BME280;65671;49.976;20.038;2023-02-01T13:15:02;97257.75;;;2.76;77.08
76746;BME280;65671;49.976;20.038;2023-02-01T13:17:32;97262.09;;;2.85;76.00
76746;BME280;65671;49.976;20.038;2023-02-01T13:22:54;97254.47;;;2.87;76.08
76746;BME280;65671;49.976;20.038;2023-02-01T13:25:34;97248.66;;;2.81;75.18
76746;BME280;65671;49.976;20.038;2023-02-01T13:28:06;97241.66;;;2.73;75.02
76746;BME280;65671;49.976;20.038;2023-02-01T13:36:47;97239.00;;;2.73;74.37
76746;BME280;65671;49.976;20.038;2023-02-01T13:42:27;97229.69;;;2.90;73.78
76746;BME280;65671;49.976;20.038;2023-02-01T13:45:12;97236.06;;;2.81;74.63
76746;BME280;65671;49.976;20.038;2023-02-01T13:47:42;97223.78;;;2.77;74.83
76746;BME280;65671;49.976;20.038;2023-02-01T13:50:30;97231.03;;;2.76;75.20
76746;BME280;65671;49.976;20.038;2023-02-01T13:55:46;97226.75;;;2.72;74.89
76746;BME280;65671;49.976;20.038;2023-02-01T13:58:22;97235.91;;;2.71;75.34
76746;BME280;65671;49.976;20.038;2023-02-01T14:03:52;97228.09;;;2.85;74.82
76746;BME280;65671;49.976;20.038;2023-02-01T14:11:54;97224.97;;;2.79;74.44
76746;BME280;65671;49.976;20.038;2023-02-01T14:19:26;97223.94;;;2.88;73.14
76746;BME280;65671;49.976;20.038;2023-02-01T14:21:57;97235.72;;;2.83;73.45
76746;BME280;65671;49.976;20.038;2023-02-01T14:24:32;97223.63;;;2.93;72.45
76746;BME280;65671;49.976;20.038;2023-02-01T14:27:13;97218.47;;;2.80;73.38
76746;BME280;65671;49.976;20.038;2023-02-01T14:29:49;97211.59;;;2.79;73.71
76746;BME280;65671;49.976;20.038;2023-02-01T14:32:35;97212.25;;;2.73;73.89
76746;BME280;65671;49.976;20.038;2023-02-01T14:35:06;97208.53;;;2.77;73.21
76746;BME280;65671;49.976;20.038;2023-02-01T14:37:38;97200.44;;;2.74;73.87
76746;BME280;65671;49.976;20.038;2023-02-01T14:47:51;97202.34;;;2.73;73.76
76746;BME280;65671;49.976;20.038;2023-02-01T14:55:48;97206.19;;;2.27;78.62
76746;BME280;65671;49.976;20.038;2023-02-01T14:58:51;97205.03;;;2.28;78.21
76746;BME280;65671;49.976;20.038;2023-02-01T15:01:35;97190.41;;;2.18;78.75
76746;BME280;65671;49.976;20.038;2023-02-01T15:04:14;97205.81;;;2.29;78.34
76746;BME280;65671;49.976;20.038;2023-02-01T15:07:05;97215.56;;;2.17;79.23
76746;BME280;65671;49.976;20.038;2023-02-01T15:09:51;97205.81;;;2.06;80.55
76746;BME280;65671;49.976;20.038;2023-02-01T15:12:26;97211.78;;;1.99;81.69
76746;BME280;65671;49.976;20.038;2023-02-01T15:15:15;97230.28;;;1.89;83.08
76746;BME280;65671;49.976;20.038;2023-02-01T15:17:50;97214.84;;;1.79;84.18
76746;BME280;65671;49.976;20.038;2023-02-01T15:20:20;97222.84;;;1.59;85.21
76746;BME280;65671;49.976;20.038;2023-02-01T15:23:03;97228.75;;;1.49;85.71
76746;BME280;65671;49.976;20.038;2023-02-01T15:25:33;97227.31;;;1.36;86.57
76746;BME280;65671;49.976;20.038;2023-02-01T15:28:00;97223.47;;;1.34;87.30
76746;BME280;65671;49.976;20.038;2023-02-01T15:30:29;97213.41;;;1.27;87.68
76746;BME280;65671;49.976;20.038;2023-02-01T15:33:15;97231.38;;;1.30;88.08
76746;BME280;65671;49.976;20.038;2023-02-01T15:35:44;97233.03;;;1.35;88.43
76746;BME280;65671;49.976;20.038;2023-02-01T15:41:10;97240.59;;;1.33;88.39
76746;BME280;65671;49.976;20.038;2023-02-01T15:46:15;97266.75;;;1.27;88.81